Time;durP1;ratioP1;P1;durP2;ratioP2;P2;SDS_P1;SDS_P2;PMS_P1;PMS_P2;Temp;Humidity;BMP_temperature;BMP_pressure;BME280_temperature;BME280_humidity;BME280_pressure;Samples;Min_cycle;Max_cycle;Signal;HPM_P1;HPM_P2
2021/03/25 00:01:35;;;;;;;67.10;41.27;;;6.60;99.90;;;;;;4974797;28;20527;-85
2021/03/25 00:04:03;;;;;;;87.00;45.90;;;6.50;99.90;;;;;;4974997;28;20236;-83
2021/03/25 00:06:29;;;;;;;87.83;47.27;;;6.50;99.90;;;;;;4976930;28;20581;-85
2021/03/25 00:08:56;;;;;;;93.23;48.87;;;6.60;99.90;;;;;;4994252;28;20204;-86
2021/03/25 00:11:23;;;;;;;89.43;46.80;;;6.60;99.90;;;;;;4989591;28;20627;-85
2021/03/25 00:13:49;;;;;;;95.23;49.03;;;6.60;99.90;;;;;;4974334;28;20220;-86
2021/03/25 00:16:16;;;;;;;90.03;47.53;;;6.70;99.90;;;;;;4973502;28;20216;-86
2021/03/25 00:18:43;;;;;;;97.90;49.20;;;6.70;99.90;;;;;;4974266;28;20216;-85
2021/03/25 00:21:11;;;;;;;91.23;46.77;;;6.70;99.90;;;;;;4974292;28;20211;-85
2021/03/25 00:23:38;;;;;;;89.73;45.67;;;6.70;99.90;;;;;;4974119;28;20236;-87
2021/03/25 00:26:04;;;;;;;88.03;46.53;;;6.60;99.90;;;;;;4974786;28;20203;-86
2021/03/25 00:28:31;;;;;;;84.73;46.37;;;6.60;99.90;;;;;;4974247;28;20208;-85
2021/03/25 00:30:57;;;;;;;98.93;49.50;;;6.60;99.90;;;;;;4974278;28;20290;-86
2021/03/25 00:33:24;;;;;;;99.87;50.73;;;6.60;99.90;;;;;;4973924;28;20275;-85
2021/03/25 00:35:52;;;;;;;91.77;48.33;;;6.70;99.90;;;;;;4974110;28;20966;-86
2021/03/25 00:38:19;;;;;;;98.47;52.47;;;6.70;99.90;;;;;;4973358;28;20209;-86
2021/03/25 00:40:47;;;;;;;99.43;50.33;;;6.60;99.90;;;;;;4973820;28;20528;-85
2021/03/25 00:43:17;;;;;;;95.63;49.77;;;6.60;99.90;;;;;;4973511;28;20208;-85
2021/03/25 00:45:45;;;;;;;103.90;51.33;;;6.60;99.90;;;;;;4971671;28;20485;-86
2021/03/25 00:48:13;;;;;;;96.33;48.97;;;6.60;99.90;;;;;;4971856;28;20570;-87
2021/03/25 00:50:42;;;;;;;101.87;50.90;;;6.60;99.90;;;;;;4972873;28;20201;-85
2021/03/25 00:53:12;;;;;;;97.70;49.83;;;6.60;99.90;;;;;;4982106;28;20208;-84
2021/03/25 00:55:39;;;;;;;96.03;51.90;;;6.60;99.90;;;;;;5001655;28;20247;-85
2021/03/25 00:58:05;;;;;;;101.27;51.27;;;6.50;99.90;;;;;;5010861;28;20196;-86
2021/03/25 01:00:34;;;;;;;108.67;52.50;;;6.50;99.90;;;;;;5011055;28;20210;-87
2021/03/25 01:03:00;;;;;;;102.10;51.13;;;6.50;99.90;;;;;;4991097;28;20215;-86
2021/03/25 01:05:28;;;;;;;93.83;50.77;;;6.50;99.90;;;;;;4990313;28;20313;-86
2021/03/25 01:07:54;;;;;;;93.60;50.80;;;6.40;99.90;;;;;;4991561;28;20570;-84
2021/03/25 01:10:26;;;;;;;110.87;52.03;;;6.40;99.90;;;;;;4990821;28;20196;-84
2021/03/25 01:12:52;;;;;;;108.37;52.47;;;6.40;99.90;;;;;;5004867;28;20671;-86
2021/03/25 01:15:18;;;;;;;105.00;52.60;;;6.40;99.90;;;;;;5009322;28;20199;-85
2021/03/25 01:17:48;;;;;;;107.07;54.80;;;6.40;99.90;;;;;;5010142;28;20207;-84
2021/03/25 01:20:20;;;;;;;104.20;52.57;;;6.40;99.90;;;;;;5003626;28;20204;-85
2021/03/25 01:22:47;;;;;;;107.23;54.03;;;6.40;99.90;;;;;;4990261;28;20212;-86
2021/03/25 01:25:14;;;;;;;104.67;53.43;;;6.40;99.90;;;;;;4989890;28;20935;-84
2021/03/25 01:27:41;;;;;;;115.80;55.47;;;6.30;99.90;;;;;;4984967;28;20208;-84
2021/03/25 01:30:10;;;;;;;103.70;51.47;;;6.40;99.90;;;;;;4990115;28;20215;-86
2021/03/25 01:32:37;;;;;;;110.00;51.20;;;6.40;99.90;;;;;;4991881;28;20243;-86
2021/03/25 01:35:06;;;;;;;111.33;53.33;;;6.40;99.90;;;;;;4991591;28;20299;-85
2021/03/25 01:37:32;;;;;;;117.23;55.20;;;6.40;99.90;;;;;;4988658;28;20216;-84
2021/03/25 01:39:58;;;;;;;120.20;55.70;;;6.40;99.90;;;;;;4991163;28;20212;-85
2021/03/25 01:42:27;;;;;;;126.30;57.10;;;6.50;99.90;;;;;;4992631;28;20234;-85
2021/03/25 01:44:54;;;;;;;123.07;55.27;;;6.50;99.90;;;;;;5012483;28;20227;-84
2021/03/25 01:47:21;;;;;;;129.43;60.10;;;6.50;99.90;;;;;;5012077;28;20195;-85
2021/03/25 01:49:48;;;;;;;126.90;59.00;;;6.50;99.90;;;;;;5012484;28;20211;-85
2021/03/25 01:52:33;;;;;;;114.87;55.20;;;6.60;99.90;;;;;;5011585;28;20211;-85
2021/03/25 01:55:11;;;;;;;127.27;58.13;;;6.60;99.90;;;;;;5009041;28;20234;-86
2021/03/25 01:57:54;;;;;;;113.17;56.83;;;6.60;99.90;;;;;;5009848;28;20203;-86
2021/03/25 02:00:31;;;;;;;124.63;56.53;;;6.60;99.90;;;;;;5011107;28;20203;-86
2021/03/25 02:03:18;;;;;;;121.50;56.73;;;6.60;99.90;;;;;;5012521;28;20199;-85
2021/03/25 02:05:53;;;;;;;118.23;56.90;;;6.70;99.90;;;;;;5010887;28;20206;-85
2021/03/25 02:08:28;;;;;;;124.47;56.60;;;6.70;99.90;;;;;;5007563;28;20203;-84
2021/03/25 02:11:04;;;;;;;118.53;56.50;;;6.70;99.90;;;;;;4992276;28;20222;-84
2021/03/25 02:13:36;;;;;;;122.17;54.87;;;6.80;99.90;;;;;;4991295;28;20232;-86
2021/03/25 02:16:06;;;;;;;118.37;52.83;;;6.80;99.90;;;;;;4992415;28;20807;-86
2021/03/25 02:18:38;;;;;;;118.37;55.90;;;6.80;99.90;;;;;;4992774;28;20200;-85
2021/03/25 02:21:15;;;;;;;115.33;54.10;;;6.80;99.90;;;;;;4990581;28;20592;-85
2021/03/25 02:24:04;;;;;;;111.33;53.57;;;6.90;99.90;;;;;;4992472;28;20235;-87
2021/03/25 02:26:34;;;;;;;122.30;55.70;;;6.90;99.90;;;;;;4979956;28;20208;-87
2021/03/25 02:29:34;;;;;;;104.33;55.17;;;6.90;99.90;;;;;;4992235;28;20267;-87
2021/03/25 02:32:05;;;;;;;116.67;53.97;;;6.90;99.90;;;;;;4991664;28;20199;-85
2021/03/25 02:34:35;;;;;;;105.70;53.73;;;7.00;99.90;;;;;;4999661;28;20222;-84
2021/03/25 02:37:07;;;;;;;106.57;51.93;;;7.00;99.90;;;;;;5011518;28;20199;-84
2021/03/25 02:39:37;;;;;;;110.17;54.40;;;7.00;99.90;;;;;;4998313;28;20632;-85
2021/03/25 02:42:08;;;;;;;109.23;53.30;;;7.00;99.90;;;;;;5008235;28;20309;-84
2021/03/25 02:44:38;;;;;;;104.17;51.57;;;7.00;99.90;;;;;;5010042;28;20227;-85
2021/03/25 02:47:08;;;;;;;108.30;53.67;;;7.00;99.90;;;;;;4998808;28;20921;-83
2021/03/25 02:49:43;;;;;;;109.23;54.60;;;7.00;99.90;;;;;;4990843;28;20204;-85
2021/03/25 02:52:17;;;;;;;112.87;53.47;;;7.00;99.90;;;;;;4991218;28;20878;-85
2021/03/25 02:54:43;;;;;;;106.47;55.20;;;7.00;99.90;;;;;;4990378;28;20489;-85
2021/03/25 02:57:14;;;;;;;102.70;51.43;;;7.00;99.90;;;;;;4990608;28;20569;-86
2021/03/25 02:59:44;;;;;;;103.93;52.60;;;7.10;99.90;;;;;;4990523;28;20207;-83
2021/03/25 03:02:17;;;;;;;95.87;49.07;;;7.10;99.90;;;;;;5008517;28;20681;-83
2021/03/25 03:04:45;;;;;;;99.97;49.80;;;7.10;99.90;;;;;;4993214;28;20318;-85
2021/03/25 03:07:16;;;;;;;94.27;46.80;;;7.10;99.90;;;;;;5010011;28;20207;-84
2021/03/25 03:09:45;;;;;;;95.23;47.43;;;7.10;99.90;;;;;;5009494;28;20215;-84
2021/03/25 03:12:17;;;;;;;94.40;49.13;;;7.10;99.90;;;;;;5007285;28;20215;-84
2021/03/25 03:14:49;;;;;;;94.20;47.57;;;7.10;99.90;;;;;;4990339;28;20231;-84
2021/03/25 03:17:20;;;;;;;96.80;47.27;;;7.20;99.90;;;;;;4991143;28;20215;-85
2021/03/25 03:19:52;;;;;;;83.40;45.80;;;7.20;99.90;;;;;;4986094;28;20208;-84
2021/03/25 03:22:19;;;;;;;78.03;43.37;;;7.30;99.90;;;;;;4985466;28;20207;-85
2021/03/25 03:24:48;;;;;;;91.80;46.00;;;7.30;99.90;;;;;;4990952;28;20398;-86
2021/03/25 03:27:19;;;;;;;89.63;45.70;;;7.30;99.90;;;;;;4991448;28;20208;-85
2021/03/25 03:29:48;;;;;;;92.87;43.57;;;7.30;99.90;;;;;;4991402;28;20192;-86
2021/03/25 03:32:23;;;;;;;82.20;44.83;;;7.40;99.90;;;;;;4991797;28;20204;-85
2021/03/25 03:34:51;;;;;;;84.33;44.63;;;7.40;99.90;;;;;;4990144;28;20206;-87
2021/03/25 03:37:22;;;;;;;86.00;44.23;;;7.40;99.90;;;;;;4987379;28;20211;-87
2021/03/25 03:39:53;;;;;;;86.27;44.03;;;7.40;99.90;;;;;;4991872;28;20937;-85
2021/03/25 03:42:21;;;;;;;81.23;43.07;;;7.50;99.90;;;;;;4991477;28;20181;-86
2021/03/25 03:44:51;;;;;;;79.70;42.90;;;7.50;99.90;;;;;;4998929;28;20222;-87
2021/03/25 03:47:21;;;;;;;91.93;46.93;;;7.40;99.90;;;;;;5010900;28;20211;-86
2021/03/25 03:49:52;;;;;;;84.27;43.27;;;7.50;99.90;;;;;;5010813;28;20552;-85
2021/03/25 03:52:22;;;;;;;80.33;42.40;;;7.50;99.90;;;;;;5009907;28;20744;-86
2021/03/25 03:54:51;;;;;;;87.23;42.10;;;7.50;99.90;;;;;;5010942;28;20253;-85
2021/03/25 03:57:25;;;;;;;88.03;44.47;;;7.50;99.90;;;;;;4996024;28;20525;-86
2021/03/25 03:59:59;;;;;;;70.77;40.07;;;7.50;99.90;;;;;;4990889;28;20212;-86
2021/03/25 04:02:35;;;;;;;82.10;41.77;;;7.50;99.90;;;;;;4990407;28;20192;-86
2021/03/25 04:05:12;;;;;;;79.80;41.97;;;7.50;99.90;;;;;;5003913;28;20694;-85
2021/03/25 04:07:43;;;;;;;78.97;42.43;;;7.50;99.90;;;;;;5010755;28;20199;-85
2021/03/25 04:10:14;;;;;;;80.13;42.93;;;7.50;99.90;;;;;;4993358;28;20246;-87
2021/03/25 04:12:44;;;;;;;79.93;44.07;;;7.50;99.90;;;;;;4990103;28;20211;-86
2021/03/25 04:15:16;;;;;;;78.73;43.17;;;7.50;99.90;;;;;;5013575;23;20243;-86
2021/03/25 04:17:47;;;;;;;79.60;41.03;;;7.50;99.90;;;;;;4993708;28;20219;-86
2021/03/25 04:20:18;;;;;;;83.27;41.63;;;7.50;99.90;;;;;;4990374;28;20192;-84
2021/03/25 04:22:49;;;;;;;83.73;43.37;;;7.50;99.90;;;;;;4985192;28;20204;-86
2021/03/25 04:25:20;;;;;;;80.93;42.53;;;7.50;99.90;;;;;;4983765;28;20314;-87
2021/03/25 04:27:51;;;;;;;81.13;42.37;;;7.60;99.90;;;;;;4970801;28;20196;-85
2021/03/25 04:30:22;;;;;;;80.27;43.40;;;7.60;99.90;;;;;;4971678;28;20244;-85
2021/03/25 04:32:50;;;;;;;76.20;41.17;;;7.60;99.90;;;;;;4971495;28;20204;-84
2021/03/25 04:35:18;;;;;;;88.43;44.73;;;7.60;99.90;;;;;;4985726;28;20219;-84
2021/03/25 04:37:45;;;;;;;80.47;41.73;;;7.60;99.90;;;;;;4990522;28;20200;-85
2021/03/25 04:40:15;;;;;;;76.10;40.10;;;7.50;99.90;;;;;;4990052;28;20230;-85
2021/03/25 04:42:43;;;;;;;70.33;37.07;;;7.50;99.90;;;;;;4989637;28;20521;-85
2021/03/25 04:45:17;;;;;;;74.60;42.23;;;7.50;99.90;;;;;;4991030;28;20228;-85
2021/03/25 04:47:47;;;;;;;78.40;42.83;;;7.40;99.90;;;;;;4993709;28;20200;-86
2021/03/25 04:50:20;;;;;;;86.07;45.83;;;7.40;99.90;;;;;;5013531;28;20221;-85
2021/03/25 04:52:47;;;;;;;73.47;39.93;;;7.40;99.90;;;;;;5003381;28;20314;-84
2021/03/25 04:55:21;;;;;;;78.73;40.77;;;7.30;99.90;;;;;;4993618;28;20200;-83
2021/03/25 04:57:53;;;;;;;84.10;42.60;;;7.30;99.90;;;;;;4993298;28;20262;-85
2021/03/25 05:00:26;;;;;;;83.80;43.70;;;7.30;99.90;;;;;;5008105;28;20214;-85
2021/03/25 05:02:55;;;;;;;83.20;43.53;;;7.30;99.90;;;;;;5012097;28;20243;-86
2021/03/25 05:05:25;;;;;;;82.83;42.00;;;7.30;99.90;;;;;;5012592;28;20223;-85
2021/03/25 05:07:59;;;;;;;87.43;42.43;;;7.30;99.90;;;;;;5012112;28;20203;-86
2021/03/25 05:10:33;;;;;;;79.40;43.07;;;7.30;99.90;;;;;;5012145;28;20254;-85
2021/03/25 05:12:59;;;;;;;80.60;44.67;;;7.30;99.90;;;;;;5012892;28;20278;-83
2021/03/25 05:15:29;;;;;;;81.03;43.47;;;7.30;99.90;;;;;;5001599;28;20976;-85
2021/03/25 05:18:07;;;;;;;77.20;41.50;;;7.30;99.90;;;;;;4992819;28;20291;-85
2021/03/25 05:20:41;;;;;;;81.67;43.53;;;7.30;99.90;;;;;;4987757;28;20279;-86
2021/03/25 05:23:16;;;;;;;81.63;44.30;;;7.30;99.90;;;;;;4973828;28;20196;-84
2021/03/25 05:25:47;;;;;;;76.47;42.90;;;7.20;99.90;;;;;;4983516;28;20271;-85
2021/03/25 05:28:21;;;;;;;73.20;41.63;;;7.20;99.90;;;;;;4993601;28;20192;-84
2021/03/25 05:30:50;;;;;;;82.03;42.47;;;7.10;99.90;;;;;;4993119;28;20449;-86
2021/03/25 05:33:19;;;;;;;79.30;40.83;;;7.10;99.90;;;;;;4991747;28;20207;-85
2021/03/25 05:35:53;;;;;;;74.67;42.03;;;7.10;99.90;;;;;;4976658;28;20521;-85
2021/03/25 05:38:20;;;;;;;78.33;45.53;;;7.10;99.90;;;;;;4976702;28;20274;-86
2021/03/25 05:40:51;;;;;;;78.03;42.83;;;7.10;99.90;;;;;;4990936;28;20215;-85
2021/03/25 05:43:55;;;;;;;69.97;41.00;;;7.10;99.90;;;;;;4991702;28;20196;-85
2021/03/25 05:46:30;;;;;;;79.47;44.03;;;7.10;99.90;;;;;;4990987;28;20207;-83
2021/03/25 05:49:06;;;;;;;70.23;41.37;;;7.10;99.90;;;;;;4991441;28;20215;-86
2021/03/25 05:51:40;;;;;;;82.70;44.20;;;7.10;99.90;;;;;;4990760;28;20231;-86
2021/03/25 05:54:20;;;;;;;93.07;46.87;;;7.10;99.90;;;;;;4973458;28;20219;-85
2021/03/25 05:57:03;;;;;;;88.20;46.80;;;7.10;99.90;;;;;;4970146;28;20220;-85
2021/03/25 05:59:35;;;;;;;77.43;43.07;;;7.20;99.90;;;;;;4986737;28;20294;-85
2021/03/25 06:02:05;;;;;;;89.77;46.87;;;7.20;99.90;;;;;;4991058;28;20651;-86
2021/03/25 06:04:34;;;;;;;88.07;46.90;;;7.20;99.90;;;;;;4989741;28;20234;-87
2021/03/25 06:07:12;;;;;;;84.70;44.83;;;7.20;99.90;;;;;;4989122;28;20226;-85
2021/03/25 06:10:04;;;;;;;89.73;50.03;;;7.30;99.90;;;;;;4990865;28;20199;-86
2021/03/25 06:12:45;;;;;;;86.03;47.03;;;7.30;99.90;;;;;;4993025;28;20199;-87
2021/03/25 06:17:51;;;;;;;86.57;46.30;;;7.30;99.90;;;;;;5035678;23;20584;-87
2021/03/25 06:20:51;;;;;;;87.57;44.40;;;7.40;99.90;;;;;;5032116;28;20194;-87
2021/03/25 06:23:38;;;;;;;84.30;42.10;;;7.50;99.90;;;;;;5016638;28;20202;-86
2021/03/25 06:26:29;;;;;;;90.17;44.40;;;7.60;99.90;;;;;;5011096;28;20219;-87
2021/03/25 06:29:02;;;;;;;88.00;44.90;;;7.70;99.90;;;;;;5011173;28;20196;-84
2021/03/25 06:31:44;;;;;;;82.57;43.37;;;7.70;99.90;;;;;;5026606;28;20241;-84
2021/03/25 06:34:17;;;;;;;84.27;42.40;;;7.80;99.90;;;;;;5029416;28;20203;-86
2021/03/25 06:37:06;;;;;;;89.57;43.87;;;7.80;99.90;;;;;;5031300;28;20198;-85
2021/03/25 06:39:43;;;;;;;79.67;42.13;;;7.90;99.90;;;;;;5029174;28;20207;-86
2021/03/25 06:42:18;;;;;;;84.60;42.20;;;8.00;99.90;;;;;;5032328;28;20264;-88
2021/03/25 06:44:49;;;;;;;78.77;41.13;;;8.00;99.90;;;;;;5030780;28;20245;-86
2021/03/25 06:47:29;;;;;;;81.37;41.83;;;8.10;99.90;;;;;;5031251;28;20205;-84
2021/03/25 06:49:59;;;;;;;80.03;41.23;;;8.10;99.90;;;;;;5031626;28;20576;-87
2021/03/25 06:52:29;;;;;;;72.90;39.57;;;8.10;99.90;;;;;;5030476;28;20198;-86
2021/03/25 06:55:02;;;;;;;85.50;42.50;;;8.20;99.90;;;;;;5029174;28;20591;-85
2021/03/25 06:57:40;;;;;;;85.00;42.30;;;8.30;99.90;;;;;;5015836;28;20689;-87
2021/03/25 07:00:08;;;;;;;73.40;40.40;;;8.40;99.90;;;;;;5008297;28;20207;-85
2021/03/25 07:02:36;;;;;;;79.10;41.63;;;8.50;99.90;;;;;;5010087;28;20607;-85
2021/03/25 07:05:05;;;;;;;68.40;39.90;;;8.60;99.90;;;;;;5011274;28;20234;-87
2021/03/25 07:07:36;;;;;;;68.27;38.00;;;8.60;99.90;;;;;;5023938;28;20207;-87
2021/03/25 07:10:06;;;;;;;72.47;37.43;;;8.70;99.90;;;;;;5029612;28;20213;-87
2021/03/25 07:12:35;;;;;;;70.53;38.90;;;8.70;99.90;;;;;;5029599;28;20210;-85
2021/03/25 07:15:04;;;;;;;78.40;38.43;;;8.70;99.90;;;;;;5010032;28;20210;-85
2021/03/25 07:17:36;;;;;;;83.40;40.23;;;8.70;99.90;;;;;;5006352;28;20247;-86
2021/03/25 07:20:15;;;;;;;67.37;37.37;;;8.80;99.90;;;;;;4991349;28;20208;-86
2021/03/25 07:22:42;;;;;;;71.33;38.83;;;8.80;99.90;;;;;;4990464;28;20200;-86
2021/03/25 07:25:18;;;;;;;72.23;36.73;;;8.80;99.90;;;;;;5006004;28;20234;-86
2021/03/25 07:27:45;;;;;;;71.83;39.40;;;8.90;99.90;;;;;;5009222;28;20869;-86
2021/03/25 07:30:14;;;;;;;78.90;41.70;;;8.90;99.90;;;;;;5009521;28;20218;-86
2021/03/25 07:32:48;;;;;;;71.10;38.70;;;8.90;99.90;;;;;;5008517;28;20204;-86
2021/03/25 07:35:32;;;;;;;69.67;38.90;;;9.00;99.90;;;;;;4993024;28;20631;-86
2021/03/25 07:38:01;;;;;;;75.60;38.23;;;9.00;99.90;;;;;;4987745;28;20212;-86
2021/03/25 07:40:33;;;;;;;64.33;37.13;;;9.00;99.90;;;;;;5001883;28;20626;-86
2021/03/25 07:43:14;;;;;;;77.07;38.93;;;9.10;99.90;;;;;;5008798;28;20199;-85
2021/03/25 07:45:41;;;;;;;64.47;37.23;;;9.10;99.90;;;;;;5009526;28;20218;-86
2021/03/25 07:48:18;;;;;;;67.23;38.20;;;9.10;99.90;;;;;;5009829;28;20199;-86
2021/03/25 07:50:47;;;;;;;68.33;36.07;;;9.20;99.90;;;;;;4997220;28;20208;-86
2021/03/25 07:53:19;;;;;;;63.67;35.63;;;9.20;99.90;;;;;;5008906;28;20227;-87
2021/03/25 07:55:47;;;;;;;60.13;33.50;;;9.20;99.90;;;;;;4990255;28;20254;-84
2021/03/25 07:58:33;;;;;;;65.33;35.97;;;9.20;99.90;;;;;;4989771;28;20207;-86
2021/03/25 08:01:07;;;;;;;69.90;36.77;;;9.20;99.90;;;;;;4999520;28;20261;-87
2021/03/25 08:03:43;;;;;;;64.77;36.93;;;9.20;99.90;;;;;;5008058;28;20210;-86
2021/03/25 08:06:24;;;;;;;64.43;36.47;;;9.20;99.90;;;;;;4994571;28;20222;-85
2021/03/25 08:09:05;;;;;;;69.67;37.13;;;9.20;99.90;;;;;;4991256;28;20196;-86
2021/03/25 08:11:34;;;;;;;63.43;34.80;;;9.30;99.90;;;;;;4990931;28;20312;-87
2021/03/25 08:14:04;;;;;;;61.87;34.57;;;9.30;99.90;;;;;;4990383;28;20216;-85
2021/03/25 08:16:31;;;;;;;59.67;33.50;;;9.30;99.90;;;;;;4989984;28;20247;-85
2021/03/25 08:19:10;;;;;;;54.60;33.17;;;9.40;99.90;;;;;;4989938;28;20210;-86
2021/03/25 08:21:45;;;;;;;58.40;34.80;;;9.40;99.90;;;;;;4994543;28;20204;-85
2021/03/25 08:24:26;;;;;;;62.67;34.60;;;9.40;99.90;;;;;;4994185;28;20195;-85
2021/03/25 08:27:13;;;;;;;52.00;31.07;;;9.40;99.90;;;;;;4989042;28;20215;-85
2021/03/25 08:29:49;;;;;;;48.53;31.10;;;9.40;99.90;;;;;;5010199;28;20592;-83
2021/03/25 08:32:23;;;;;;;60.50;32.90;;;9.40;99.90;;;;;;5010162;28;20203;-87
2021/03/25 08:35:07;;;;;;;59.33;31.70;;;9.40;99.90;;;;;;4994586;28;20191;-87
2021/03/25 08:37:56;;;;;;;47.83;29.63;;;9.40;99.90;;;;;;4992604;28;20207;-85
2021/03/25 08:40:30;;;;;;;52.47;29.93;;;9.40;99.90;;;;;;4994316;28;20204;-86
2021/03/25 08:43:01;;;;;;;54.17;31.47;;;9.40;99.90;;;;;;4991086;28;20227;-87
2021/03/25 08:45:33;;;;;;;49.10;29.40;;;9.50;99.90;;;;;;4994024;28;20227;-88
2021/03/25 08:48:08;;;;;;;56.60;32.33;;;9.50;99.90;;;;;;5006493;28;20211;-88
2021/03/25 08:50:42;;;;;;;53.43;30.57;;;9.50;99.90;;;;;;5013757;28;20214;-87
2021/03/25 08:53:18;;;;;;;46.47;29.67;;;9.50;99.90;;;;;;5013633;28;20204;-88
2021/03/25 08:55:45;;;;;;;49.87;29.97;;;9.50;99.90;;;;;;5003641;28;20207;-88
2021/03/25 08:58:20;;;;;;;46.80;29.03;;;9.50;99.90;;;;;;4994392;28;20203;-89
2021/03/25 09:00:50;;;;;;;48.17;28.50;;;9.40;99.90;;;;;;5003578;28;20219;-87
2021/03/25 09:03:20;;;;;;;48.83;27.20;;;9.40;99.90;;;;;;5013460;28;20747;-88
2021/03/25 09:05:59;;;;;;;45.50;25.93;;;9.40;99.90;;;;;;4997296;28;20635;-86
2021/03/25 09:08:26;;;;;;;41.30;26.43;;;9.40;99.90;;;;;;5010536;28;20195;-89
2021/03/25 09:10:59;;;;;;;40.90;24.63;;;9.50;99.90;;;;;;4998171;28;20204;-88
2021/03/25 09:13:30;;;;;;;38.37;22.77;;;9.50;99.90;;;;;;4988968;28;20224;-90
2021/03/25 09:15:58;;;;;;;39.57;23.43;;;9.50;99.90;;;;;;4986162;28;20551;-87
2021/03/25 09:18:29;;;;;;;39.17;24.17;;;9.50;99.90;;;;;;5004231;28;20210;-89
2021/03/25 09:20:58;;;;;;;41.10;24.10;;;9.50;99.90;;;;;;5013443;28;20195;-85
2021/03/25 09:23:45;;;;;;;32.37;22.00;;;9.50;99.90;;;;;;5012330;28;20195;-92
2021/03/25 09:26:57;;;;;;;31.73;20.60;;;9.50;99.90;;;;;;5013523;28;20216;-87
2021/03/25 09:29:31;;;;;;;43.40;24.87;;;9.60;99.90;;;;;;5004769;28;20211;-90
2021/03/25 09:32:33;;;;;;;43.83;24.13;;;9.60;99.90;;;;;;4992477;28;20195;-90
2021/03/25 09:35:25;;;;;;;39.27;24.67;;;9.60;99.90;;;;;;4993516;28;20239;-87
2021/03/25 09:37:54;;;;;;;43.50;24.83;;;9.60;99.90;;;;;;4976645;28;20216;-87
2021/03/25 09:40:42;;;;;;;44.73;24.97;;;9.80;99.90;;;;;;4992401;28;20203;-87
2021/03/25 09:43:38;;;;;;;40.23;25.53;;;9.90;99.90;;;;;;4993031;28;20208;-88
2021/03/25 09:46:29;;;;;;;41.17;24.73;;;10.10;99.90;;;;;;4985317;28;20231;-86
2021/03/25 09:48:58;;;;;;;44.90;25.70;;;10.20;99.90;;;;;;4992976;28;20188;-85
2021/03/25 09:51:26;;;;;;;43.37;24.57;;;10.20;99.90;;;;;;4991959;28;20216;-85
2021/03/25 09:53:56;;;;;;;38.40;24.73;;;10.20;99.90;;;;;;4992638;28;20204;-91
2021/03/25 09:56:32;;;;;;;42.40;25.33;;;10.30;99.90;;;;;;4992309;28;20200;-91
2021/03/25 09:59:00;;;;;;;45.00;23.43;;;10.40;99.90;;;;;;4990009;28;20206;-86
2021/03/25 10:01:52;;;;;;;36.03;22.73;;;10.50;99.90;;;;;;4992686;28;20204;-91
2021/03/25 10:04:32;;;;;;;33.73;21.00;;;10.70;99.90;;;;;;4992005;28;20860;-90
2021/03/25 10:07:05;;;;;;;31.10;19.97;;;10.70;99.90;;;;;;4997902;28;20207;-93
2021/03/25 10:10:05;;;;;;;33.73;19.43;;;10.80;99.90;;;;;;5010728;28;20207;-89
2021/03/25 10:13:16;;;;;;;29.50;19.20;;;10.80;99.90;;;;;;5005316;28;20212;-84
2021/03/25 10:15:49;;;;;;;29.87;17.40;;;10.80;99.90;;;;;;4991087;28;20295;-85
2021/03/25 10:18:57;;;;;;;31.37;17.20;;;10.70;99.90;;;;;;5009923;28;20848;-91
2021/03/25 10:22:00;;;;;;;30.13;16.57;;;10.70;99.90;;;;;;5005386;28;20204;-90
2021/03/25 10:24:35;;;;;;;28.63;16.90;;;10.70;99.90;;;;;;4991000;28;20203;-87
2021/03/25 10:27:22;;;;;;;26.77;16.70;;;10.70;99.90;;;;;;4990591;28;20217;-82
2021/03/25 10:29:50;;;;;;;28.10;16.87;;;10.60;99.90;;;;;;4990067;28;20561;-84
2021/03/25 10:32:27;;;;;;;25.47;16.97;;;10.50;99.90;;;;;;5003210;28;20302;-85
2021/03/25 10:34:57;;;;;;;25.47;17.70;;;10.50;99.90;;;;;;5009437;28;20206;-82
2021/03/25 10:37:32;;;;;;;26.47;17.37;;;10.50;99.90;;;;;;4991696;28;20211;-91
2021/03/25 10:40:04;;;;;;;30.33;19.03;;;10.40;99.90;;;;;;4990864;28;20211;-90
2021/03/25 10:42:36;;;;;;;25.90;16.97;;;10.40;99.90;;;;;;4989935;28;20207;-89
2021/03/25 10:45:20;;;;;;;30.50;18.97;;;10.30;99.90;;;;;;5011382;28;20223;-92
2021/03/25 10:47:55;;;;;;;32.40;18.30;;;10.40;99.90;;;;;;5012716;28;20203;-88
2021/03/25 10:50:27;;;;;;;32.77;18.97;;;10.40;99.90;;;;;;5015869;28;20214;-92
2021/03/25 10:52:53;;;;;;;32.60;19.37;;;10.40;99.90;;;;;;5010556;28;20215;-88
2021/03/25 10:55:26;;;;;;;34.37;19.27;;;10.40;99.90;;;;;;5011680;28;20236;-89
2021/03/25 10:57:54;;;;;;;28.97;19.93;;;10.40;99.90;;;;;;5012510;28;20196;-92
2021/03/25 11:00:28;;;;;;;38.73;22.00;;;10.40;99.90;;;;;;5012231;28;20203;-91
2021/03/25 11:02:55;;;;;;;32.23;19.67;;;10.50;99.90;;;;;;5011655;28;20206;-87
2021/03/25 11:05:23;;;;;;;34.80;19.73;;;10.50;99.90;;;;;;5012960;28;20223;-85
2021/03/25 11:07:51;;;;;;;29.77;18.00;;;10.60;99.90;;;;;;5012574;28;20269;-90
2021/03/25 11:10:23;;;;;;;31.20;17.97;;;10.60;99.90;;;;;;5012478;28;20207;-87
2021/03/25 11:13:01;;;;;;;35.13;18.60;;;10.60;99.90;;;;;;5011262;28;20204;-91
2021/03/25 11:15:32;;;;;;;29.30;17.80;;;10.70;99.90;;;;;;5006416;28;20214;-88
2021/03/25 11:18:01;;;;;;;29.20;18.17;;;10.60;99.90;;;;;;5008179;28;20196;-84
2021/03/25 11:20:29;;;;;;;26.50;16.40;;;10.60;99.90;;;;;;5008950;28;20250;-91
2021/03/25 11:22:57;;;;;;;25.40;17.23;;;10.70;99.90;;;;;;5009290;28;20219;-90
2021/03/25 11:25:27;;;;;;;30.70;17.17;;;10.70;99.90;;;;;;5009718;28;20227;-86
2021/03/25 11:28:02;;;;;;;33.83;18.17;;;10.90;99.90;;;;;;4994314;28;20354;-86
2021/03/25 11:30:34;;;;;;;27.00;17.10;;;11.00;99.90;;;;;;4990254;28;20195;-91
2021/03/25 11:33:02;;;;;;;28.93;17.53;;;11.20;99.90;;;;;;4992539;28;20370;-93
2021/03/25 11:35:38;;;;;;;30.37;17.50;;;11.30;99.90;;;;;;4992898;28;20212;-82
2021/03/25 11:38:19;;;;;;;30.53;18.00;;;11.40;99.90;;;;;;4993880;28;20188;-91
2021/03/25 11:40:48;;;;;;;28.70;18.23;;;11.50;99.90;;;;;;4994510;28;20203;-89
2021/03/25 11:43:16;;;;;;;25.30;16.60;;;11.80;99.90;;;;;;4992602;28;20207;-79
2021/03/25 11:45:45;;;;;;;25.20;15.43;;;11.90;99.90;;;;;;4990896;28;20228;-91
2021/03/25 11:48:25;;;;;;;24.80;15.33;;;12.00;99.90;;;;;;4993982;28;20211;-93
2021/03/25 11:50:53;;;;;;;19.07;14.47;;;12.10;99.90;;;;;;4991977;28;20211;-93
2021/03/25 11:53:35;;;;;;;22.03;15.47;;;12.30;99.90;;;;;;4992990;28;20238;-80
2021/03/25 11:56:04;;;;;;;24.60;14.27;;;12.40;99.90;;;;;;4997605;28;20235;-94
2021/03/25 11:58:31;;;;;;;25.13;15.80;;;12.50;99.90;;;;;;4994684;28;20315;-88
2021/03/25 12:01:08;;;;;;;23.53;14.50;;;12.70;99.90;;;;;;5012165;23;20238;-86
2021/03/25 12:03:46;;;;;;;21.13;13.97;;;12.80;99.90;;;;;;5015424;28;20544;-79
2021/03/25 12:06:18;;;;;;;24.73;13.07;;;13.00;99.90;;;;;;5005633;28;20519;-81
2021/03/25 12:08:44;;;;;;;24.20;13.63;;;13.00;99.90;;;;;;5006886;28;20226;-81
2021/03/25 12:11:13;;;;;;;19.93;13.73;;;13.10;99.90;;;;;;5007346;28;20199;-83
2021/03/25 12:13:42;;;;;;;20.73;13.90;;;13.20;99.90;;;;;;5009063;28;20324;-95
2021/03/25 12:16:11;;;;;;;20.03;13.73;;;13.30;99.90;;;;;;5016697;28;20265;-83
2021/03/25 12:18:40;;;;;;;23.23;13.60;;;13.20;99.90;;;;;;5006519;28;20234;-85
2021/03/25 12:21:09;;;;;;;19.73;13.10;;;13.30;99.90;;;;;;5008315;28;20207;-84
2021/03/25 12:23:37;;;;;;;20.53;13.43;;;13.40;99.90;;;;;;5007440;28;20214;-85
2021/03/25 12:26:07;;;;;;;26.33;14.47;;;13.40;99.90;;;;;;5007372;28;20315;-84
2021/03/25 12:28:35;;;;;;;22.30;13.10;;;13.30;99.90;;;;;;5007963;28;20223;-85
2021/03/25 12:31:02;;;;;;;22.23;13.23;;;13.40;99.90;;;;;;5006337;28;20218;-83
2021/03/25 12:33:30;;;;;;;22.10;12.93;;;13.40;99.90;;;;;;5006808;28;20203;-87
2021/03/25 12:35:58;;;;;;;20.60;12.13;;;13.50;99.90;;;;;;5019229;28;20568;-83
2021/03/25 12:38:25;;;;;;;18.03;12.27;;;13.70;99.90;;;;;;5024443;28;20207;-91
2021/03/25 12:40:51;;;;;;;21.50;11.83;;;13.80;99.90;;;;;;5025648;28;20217;-81
2021/03/25 12:43:20;;;;;;;22.13;13.07;;;13.90;99.90;;;;;;5024733;28;20210;-80
2021/03/25 12:45:51;;;;;;;19.07;10.63;;;13.90;99.90;;;;;;5023896;28;20219;-82
2021/03/25 12:48:18;;;;;;;20.33;10.57;;;13.90;99.90;;;;;;5006788;28;20238;-86
2021/03/25 12:50:44;;;;;;;25.07;11.17;;;13.80;99.90;;;;;;5005408;28;20203;-84
2021/03/25 12:53:11;;;;;;;19.97;10.20;;;13.80;99.90;;;;;;5004740;28;20210;-94
2021/03/25 12:55:43;;;;;;;22.53;11.50;;;13.90;99.90;;;;;;5014741;23;20818;-95
2021/03/25 12:58:18;;;;;;;27.77;12.23;;;13.90;99.90;;;;;;5006943;28;20203;-81
2021/03/25 13:00:45;;;;;;;21.87;11.80;;;14.00;99.90;;;;;;5004089;28;20214;-81
2021/03/25 13:03:12;;;;;;;30.73;12.37;;;13.90;99.90;;;;;;5003089;28;20207;-81
2021/03/25 13:05:38;;;;;;;16.63;10.30;;;13.90;99.90;;;;;;5006569;28;20242;-80